Terminal Aerodrome Forecast
Issued by NWS Sioux Falls, SD

Home | Current Version | Previous Version | Text Only | Print | Product List | Glossary Off
Versions: 1 2 3 4 5 6 7 8 9 10 11 12 13

214
FTUS43 KFSD 261720
TAFHON
TAF
KHON 261720Z 2618/2718 30009KT P6SM SCT015 SCT250
     FM262100 25007KT P6SM SCT050
     FM270000 VRB04KT P6SM BKN100
     FM270500 18007KT P6SM BKN150=

USA.gov is the U.S. government's official web portal to all federal, state and local government web resources and services.